Observation data for Morton on 02/11/2018      Previous  Date  Next       Current Mesonet Observations  Soil Data  Daily Summary Page  Observations in Plain Language
KMNS 110600Z 03012KT M07/M13 A2997 RMK A01 T10731133  RH  062%=      5-min Rain = 0
KMNS 110605Z 03013KT M07/M13 A2998 RMK A01 T10731132  RH  062%=      5-min Rain = 0
KMNS 110610Z 03013KT M07/M13 A2998 RMK A01 T10741132  RH  062%=      5-min Rain = 0
KMNS 110615Z 03014KT M07/M13 A2998 RMK A01 T10741132  RH  063%=      5-min Rain = 0
KMNS 110620Z 03014KT M08/M13 A2998 RMK A01 T10751132  RH  063%=      5-min Rain = 0
KMNS 110625Z 03012KT M08/M13 A2999 RMK A01 T10751133  RH  063%=      5-min Rain = 0
KMNS 110630Z 03012KT M08/M13 A2999 RMK A01 T10751133  RH  063%=      5-min Rain = 0
KMNS 110635Z 04012KT M08/M13 A2998 RMK A01 T10761134  RH  063%=      5-min Rain = 0
KMNS 110640Z 04012KT M08/M13 A2998 RMK A01 T10761134  RH  063%=      5-min Rain = 0
KMNS 110645Z 03014G19KT M08/M13 A2999 RMK A01 T10761134  RH  063%=      5-min Rain = 0
KMNS 110650Z 03012KT M08/M13 A2999 RMK A01 T10771134  RH  063%=      5-min Rain = 0
KMNS 110655Z 03013G18KT M08/M13 A2999 RMK A01 T10771134  RH  063%=      5-min Rain = 0
KMNS 110700Z 03013KT M08/M13 A2999 RMK A01 T10781134  RH  063%=      5-min Rain = 0
KMNS 110705Z 03012KT M08/M14 A2999 RMK A01 T10781135  RH  064%=      5-min Rain = 0
KMNS 110710Z 03011KT M08/M14 A30 RMK A01 T10791135  RH  064%=      5-min Rain = 0
KMNS 110715Z 03011KT M08/M14 A30 RMK A01 T10801135  RH  064%=      5-min Rain = 0
KMNS 110720Z 03011KT M08/M14 A30 RMK A01 T10801136  RH  064%=      5-min Rain = 0
KMNS 110725Z 02008KT M08/M14 A30 RMK A01 T10811136  RH  064%=      5-min Rain = 0
KMNS 110730Z 02010KT M08/M14 A30 RMK A01 T10821136  RH  065%=      5-min Rain = 0
KMNS 110735Z 02008KT M08/M14 A30 RMK A01 T10831136  RH  065%=      5-min Rain = 0
KMNS 110740Z 01009KT M08/M14 A3001 RMK A01 T10831136  RH  065%=      5-min Rain = 0
KMNS 110745Z 02010KT M08/M14 A3002 RMK A01 T10831137  RH  065%=      5-min Rain = 0
KMNS 110750Z 02013KT M08/M14 A3002 RMK A01 T10841138  RH  064%=      5-min Rain = 0
KMNS 110755Z 02013G18KT M08/M14 A3002 RMK A01 T10841140  RH  063%=      5-min Rain = 0
KMNS 110800Z 02012KT M09/M14 A3002 RMK A01 T10851141  RH  063%=      5-min Rain = 0
KMNS 110805Z 02011KT M09/M14 A3003 RMK A01 T10851142  RH  063%=      5-min Rain = 0
KMNS 110810Z 01011KT M09/M14 A3002 RMK A01 T10861141  RH  064%=      5-min Rain = 0
KMNS 110815Z 01010KT M09/M14 A3002 RMK A01 T10871142  RH  064%=      5-min Rain = 0
KMNS 110820Z 01010KT M09/M14 A3003 RMK A01 T10881142  RH  065%=      5-min Rain = 0
KMNS 110825Z 01009G15KT M09/M14 A3003 RMK A01 T10891141  RH  065%=      5-min Rain = 0
KMNS 110830Z 01011KT M09/M14 A3003 RMK A01 T10891141  RH  065%=      5-min Rain = 0
KMNS 110835Z 01012KT M09/M14 A3003 RMK A01 T10891141  RH  065%=      5-min Rain = 0
KMNS 110840Z 01010KT M09/M14 A3002 RMK A01 T10891142  RH  065%=      5-min Rain = 0
KMNS 110845Z 01010KT M09/M14 A3002 RMK A01 T10901142  RH  065%=      5-min Rain = 0
KMNS 110850Z 01009KT M09/M14 A3002 RMK A01 T10901142  RH  065%=      5-min Rain = 0
KMNS 110855Z 01009KT M09/M14 A3002 RMK A01 T10901142  RH  065%=      5-min Rain = 0
KMNS 110900Z 01009KT M09/M14 A3002 RMK A01 T10911143  RH  065%=      5-min Rain = 0
KMNS 110905Z 01009KT M09/M14 A3002 RMK A01 T10911143  RH  065%=      5-min Rain = 0
KMNS 110910Z 01009KT M09/M14 A3003 RMK A01 T10911143  RH  066%=      5-min Rain = 0
KMNS 110915Z 01008KT M09/M14 A3003 RMK A01 T10921143  RH  066%=      5-min Rain = 0
KMNS 110920Z 01008KT M09/M14 A3003 RMK A01 T10921143  RH  066%=      5-min Rain = 0
KMNS 110925Z 01007KT M09/M14 A3003 RMK A01 T10921143  RH  066%=      5-min Rain = 0
KMNS 110930Z 01007KT M09/M14 A3003 RMK A01 T10911143  RH  065%=      5-min Rain = 0
KMNS 110935Z 01007KT M09/M14 A3003 RMK A01 T10901143  RH  065%=      5-min Rain = 0
KMNS 110940Z 01007KT M09/M14 A3004 RMK A01 T10901143  RH  065%=      5-min Rain = 0
KMNS 110945Z 01007KT M09/M14 A3004 RMK A01 T10891143  RH  065%=      5-min Rain = 0
KMNS 110950Z 01007KT M09/M14 A3004 RMK A01 T10891143  RH  065%=      5-min Rain = 0
KMNS 110955Z 01007KT M09/M14 A3004 RMK A01 T10891143  RH  065%=      5-min Rain = 0
KMNS 111000Z 01007KT M09/M14 A3004 RMK A01 T10891142  RH  065%=      5-min Rain = 0
KMNS 111005Z 01008KT M09/M14 A3004 RMK A01 T10881142  RH  064%=      5-min Rain = 0
KMNS 111010Z 01007KT M09/M14 A3004 RMK A01 T10881142  RH  064%=      5-min Rain = 0
KMNS 111015Z 01008KT M09/M14 A3005 RMK A01 T10871141  RH  064%=      5-min Rain = 0
KMNS 111020Z 01007KT M09/M14 A3005 RMK A01 T10871142  RH  064%=      5-min Rain = 0
KMNS 111025Z 00007KT M09/M14 A3005 RMK A01 T10871141  RH  064%=      5-min Rain = 0
KMNS 111030Z 00008KT M09/M14 A3005 RMK A01 T10861141  RH  064%=      5-min Rain = 0
KMNS 111035Z 01008KT M09/M14 A3005 RMK A01 T10861140  RH  064%=      5-min Rain = 0
KMNS 111040Z 36007KT M09/M14 A3006 RMK A01 T10851140  RH  064%=      5-min Rain = 0
KMNS 111045Z 00008KT M08/M14 A3006 RMK A01 T10841140  RH  063%=      5-min Rain = 0
KMNS 111050Z 36007KT M08/M14 A3006 RMK A01 T10841140  RH  063%=      5-min Rain = 0
KMNS 111055Z 00008KT M08/M14 A3006 RMK A01 T10831140  RH  063%=      5-min Rain = 0
KMNS 111100Z 00007KT M08/M14 A3006 RMK A01 T10821140  RH  063%=      5-min Rain = 0
KMNS 111105Z 00006KT M08/M14 A3006 RMK A01 T10821140  RH  062%=      5-min Rain = 0
KMNS 111110Z 00007KT M08/M14 A3006 RMK A01 T10811139  RH  062%=      5-min Rain = 0
KMNS 111115Z 35006KT M08/M14 A3007 RMK A01 T10811140  RH  062%=      5-min Rain = 0
KMNS 111120Z 36007KT M08/M14 A3007 RMK A01 T10801139  RH  062%=      5-min Rain = 0
KMNS 111125Z 36007KT M08/M14 A3007 RMK A01 T10791139  RH  062%=      5-min Rain = 0
KMNS 111130Z 35006KT M08/M14 A3007 RMK A01 T10791139  RH  062%=      5-min Rain = 0
KMNS 111135Z 35006KT M08/M14 A3008 RMK A01 T10781138  RH  061%=      5-min Rain = 0
KMNS 111140Z 35006KT M08/M14 A3008 RMK A01 T10771138  RH  061%=      5-min Rain = 0
KMNS 111145Z 35005KT M08/M14 A3008 RMK A01 T10771138  RH  061%=      5-min Rain = 0
KMNS 111150Z 35006KT M08/M14 A3008 RMK A01 T10761137  RH  061%=      5-min Rain = 0
KMNS 111155Z 35007KT M08/M14 A3008 RMK A01 T10751137  RH  061%=      5-min Rain = 0
KMNS 111200Z 35007KT M07/M14 A3009 RMK A01 T10741137  RH  060%=      5-min Rain = 0
KMNS 111205Z 35007KT M07/M14 A3009 RMK A01 T10731136  RH  060%=      5-min Rain = 0
KMNS 111210Z 35009KT M07/M14 A3009 RMK A01 T10721136  RH  060%=      5-min Rain = 0
KMNS 111215Z 35008G13KT M07/M14 A301 RMK A01 T10711136  RH  059%=      5-min Rain = 0
KMNS 111220Z 35010KT M07/M14 A301 RMK A01 T10701136  RH  059%=      5-min Rain = 0
KMNS 111225Z 35009KT M07/M14 A301 RMK A01 T10701136  RH  059%=      5-min Rain = 0
KMNS 111230Z 35008KT M07/M14 A301 RMK A01 T10711136  RH  059%=      5-min Rain = 0
KMNS 111235Z 36009KT M07/M14 A301 RMK A01 T10701136  RH  059%=      5-min Rain = 0
KMNS 111240Z 00008KT M07/M14 A301 RMK A01 T10701136  RH  059%=      5-min Rain = 0
KMNS 111245Z 36008KT M07/M14 A3011 RMK A01 T10711137  RH  059%=      5-min Rain = 0
KMNS 111250Z 00007KT M07/M14 A3011 RMK A01 T10711137  RH  059%=      5-min Rain = 0
KMNS 111255Z 35007KT M07/M14 A3011 RMK A01 T10711136  RH  059%=      5-min Rain = 0
KMNS 111300Z 34005KT M07/M14 A3012 RMK A01 T10711137  RH  059%=      5-min Rain = 0
KMNS 111305Z 34006KT M07/M14 A3012 RMK A01 T10711136  RH  059%=      5-min Rain = 0
KMNS 111310Z 34006KT M07/M14 A3013 RMK A01 T10701135  RH  059%=      5-min Rain = 0
KMNS 111315Z 34007KT M07/M14 A3013 RMK A01 T10701135  RH  059%=      5-min Rain = 0
KMNS 111320Z 34007KT M07/M14 A3013 RMK A01 T10701135  RH  059%=      5-min Rain = 0
KMNS 111325Z 34007KT M07/M14 A3014 RMK A01 T10701135  RH  059%=      5-min Rain = 0
KMNS 111330Z 34007KT M07/M14 A3014 RMK A01 T10701135  RH  059%=      5-min Rain = 0
KMNS 111335Z 34007KT M07/M13 A3015 RMK A01 T10701134  RH  059%=      5-min Rain = 0
KMNS 111340Z 34007KT M07/M13 A3015 RMK A01 T10701134  RH  060%=      5-min Rain = 0
KMNS 111345Z 33007KT M07/M13 A3015 RMK A01 T10691133  RH  060%=      5-min Rain = 0
KMNS 111350Z 33007KT M07/M13 A3015 RMK A01 T10691133  RH  060%=      5-min Rain = 0
KMNS 111355Z 33006KT M07/M13 A3016 RMK A01 T10691133  RH  060%=      5-min Rain = 0
KMNS 111400Z 32006KT M07/M13 A3016 RMK A01 T10691133  RH  060%=      5-min Rain = 0
KMNS 111405Z 31007KT M07/M13 A3016 RMK A01 T10691134  RH  059%=      5-min Rain = 0
KMNS 111410Z 32007KT M07/M13 A3016 RMK A01 T10691134  RH  059%=      5-min Rain = 0
KMNS 111415Z 32006KT M07/M13 A3017 RMK A01 T10691134  RH  059%=      5-min Rain = 0
KMNS 111420Z 32006KT M07/M13 A3017 RMK A01 T10681133  RH  059%=      5-min Rain = 0
KMNS 111425Z 33007KT M07/M13 A3017 RMK A01 T10661132  RH  059%=      5-min Rain = 0
KMNS 111430Z 34007KT M06/M13 A3017 RMK A01 T10641130  RH  059%=      5-min Rain = 0
KMNS 111435Z 34009KT M06/M13 A3017 RMK A01 T10631129  RH  059%=      5-min Rain = 0
KMNS 111440Z 33008KT M06/M13 A3018 RMK A01 T10621129  RH  058%=      5-min Rain = 0
KMNS 111445Z 32007KT M06/M13 A3018 RMK A01 T10611130  RH  058%=      5-min Rain = 0
KMNS 111450Z 32008KT M06/M13 A3018 RMK A01 T10611130  RH  058%=      5-min Rain = 0
KMNS 111455Z 32007KT M06/M13 A3018 RMK A01 T10611129  RH  058%=      5-min Rain = 0
KMNS 111500Z 33008KT M06/M13 A3018 RMK A01 T10591129  RH  057%=      5-min Rain = 0
KMNS 111505Z 33008KT M06/M13 A3018 RMK A01 T10571128  RH  057%=      5-min Rain = 0
KMNS 111510Z 33009KT M06/M13 A3019 RMK A01 T10561127  RH  057%=      5-min Rain = 0
KMNS 111515Z 33009KT M05/M13 A3019 RMK A01 T10541125  RH  057%=      5-min Rain = 0
KMNS 111520Z 33009KT M05/M12 A3019 RMK A01 T10521123  RH  057%=      5-min Rain = 0
KMNS 111525Z 32008KT M05/M12 A3019 RMK A01 T10511123  RH  056%=      5-min Rain = 0
KMNS 111530Z 33008KT M05/M12 A3019 RMK A01 T10471121  RH  056%=      5-min Rain = 0
KMNS 111535Z 34009KT M05/M12 A3019 RMK A01 T10451119  RH  056%=      5-min Rain = 0
KMNS 111540Z 33008KT M04/M12 A3019 RMK A01 T10441118  RH  056%=      5-min Rain = 0
KMNS 111545Z 32009KT M04/M12 A302 RMK A01 T10411117  RH  055%=      5-min Rain = 0
KMNS 111550Z 33007KT M04/M12 A3019 RMK A01 T10411117  RH  055%=      5-min Rain = 0
KMNS 111555Z 33007KT M04/M11 A3019 RMK A01 T10361114  RH  054%=      5-min Rain = 0
KMNS 111600Z 32008KT M04/M12 A302 RMK A01 T10371116  RH  054%=      5-min Rain = 0
KMNS 111605Z 32007KT M04/M12 A302 RMK A01 T10381116  RH  055%=      5-min Rain = 0
KMNS 111610Z 32008KT M04/M12 A302 RMK A01 T10391115  RH  055%=      5-min Rain = 0
KMNS 111615Z 32007KT M04/M11 A3021 RMK A01 T10371114  RH  055%=      5-min Rain = 0
KMNS 111620Z 33008KT M04/M11 A3021 RMK A01 T10351113  RH  054%=      5-min Rain = 0
KMNS 111625Z 33007KT M03/M11 A3021 RMK A01 T10311112  RH  053%=      5-min Rain = 0
KMNS 111630Z 33007KT M03/M11 A3021 RMK A01 T10331114  RH  053%=      5-min Rain = 0
KMNS 111635Z 34005KT M03/M11 A3021 RMK A01 T10291111  RH  053%=      5-min Rain = 0
KMNS 111640Z 33005KT M02/M11 A3021 RMK A01 T10241110  RH  051%=      5-min Rain = 0
KMNS 111645Z 33006KT M02/M11 A302 RMK A01 T10211109  RH  051%=      5-min Rain = 0
KMNS 111650Z 35006KT M02/M11 A302 RMK A01 T10151106  RH  049%=      5-min Rain = 0
KMNS 111655Z 34007KT M01/M10 A302 RMK A01 T10101104  RH  048%=      5-min Rain = 0
KMNS 111700Z 35009KT M01/M10 A302 RMK A01 T10071104  RH  048%=      5-min Rain = 0
KMNS 111705Z 34008KT M00/M10 A302 RMK A01 T10031103  RH  047%=      5-min Rain = 0
KMNS 111710Z 36008G13KT M00/M10 A302 RMK A01 T10031104  RH  046%=      5-min Rain = 0
KMNS 111715Z 36007G13KT 00/M10 A302 RMK A01 T00021101  RH  046%=      5-min Rain = 0
KMNS 111720Z 34006G11KT 00/M10 A302 RMK A01 T00041101  RH  045%=      5-min Rain = 0
KMNS 111725Z 33006KT 01/M10 A302 RMK A01 T00051100  RH  045%=      5-min Rain = 0
KMNS 111730Z 34006KT 01/M10 A302 RMK A01 T00071101  RH  044%=      5-min Rain = 0
KMNS 111735Z 35009G14KT 01/M10 A302 RMK A01 T00111098  RH  044%=      5-min Rain = 0
KMNS 111740Z 36009G14KT 02/M10 A302 RMK A01 T00171098  RH  042%=      5-min Rain = 0
KMNS 111745Z 34011KT 02/M10 A302 RMK A01 T00151100  RH  042%=      5-min Rain = 0
KMNS 111750Z 34010G15KT 01/M10 A3019 RMK A01 T00121099  RH  043%=      5-min Rain = 0
KMNS 111755Z 35011KT 02/M10 A3019 RMK A01 T00191098  RH  041%=      5-min Rain = 0
KMNS 111800Z 35008KT 02/M10 A3019 RMK A01 T00201098  RH  041%=      5-min Rain = 0
KMNS 111805Z 35008KT 02/M10 A3019 RMK A01 T00231099  RH  040%=      5-min Rain = 0
KMNS 111810Z 35004G9KT 03/M10 A3019 RMK A01 T00251096  RH  040%=      5-min Rain = 0
KMNS 111815Z 34008KT 03/M10 A3018 RMK A01 T00311096  RH  039%=      5-min Rain = 0
KMNS 111820Z 00009G14KT 03/M10 A3018 RMK A01 T00321096  RH  038%=      5-min Rain = 0
KMNS 111825Z 02008KT 03/M10 A3017 RMK A01 T00341097  RH  038%=      5-min Rain = 0
KMNS 111830Z 02008G13KT 04/M10 A3017 RMK A01 T00351098  RH  037%=      5-min Rain = 0
KMNS 111835Z 01006G11KT 04/M10 A3017 RMK A01 T00351099  RH  037%=      5-min Rain = 0
KMNS 111840Z 00005G10KT 04/M10 A3017 RMK A01 T00371098  RH  037%=      5-min Rain = 0
KMNS 111845Z 01008KT 04/M10 A3017 RMK A01 T00421100  RH  035%=      5-min Rain = 0
KMNS 111850Z 36006G14KT 04/M10 A3016 RMK A01 T00431099  RH  034%=      5-min Rain = 0
KMNS 111855Z 35008G18KT 05/M10 A3016 RMK A01 T00481101  RH  033%=      5-min Rain = 0
KMNS 111900Z 02007KT 04/M10 A3016 RMK A01 T00431102  RH  034%=      5-min Rain = 0
KMNS 111905Z 01007G12KT 05/M10 A3015 RMK A01 T00481101  RH  033%=      5-min Rain = 0
KMNS 111910Z 01008KT 05/M10 A3015 RMK A01 T00521100  RH  032%=      5-min Rain = 0
KMNS 111915Z 02007KT 05/M10 A3014 RMK A01 T00531103  RH  031%=      5-min Rain = 0
KMNS 111920Z 36004G9KT 05/M10 A3014 RMK A01 T00501103  RH  032%=      5-min Rain = 0
KMNS 111925Z 36004G10KT 05/M10 A3014 RMK A01 T00511104  RH  032%=      5-min Rain = 0
KMNS 111930Z 01007KT 06/M10 A3014 RMK A01 T00591102  RH  030%=      5-min Rain = 0
KMNS 111935Z 34005KT 06/M11 A3013 RMK A01 T00581107  RH  029%=      5-min Rain = 0
KMNS 111940Z 35005KT 06/M11 A3013 RMK A01 T00571105  RH  030%=      5-min Rain = 0
KMNS 111945Z 36006KT 06/M11 A3013 RMK A01 T00561106  RH  030%=      5-min Rain = 0
KMNS 111950Z 01009KT 07/M12 A3013 RMK A01 T00651116  RH  026%=      5-min Rain = 0
KMNS 111955Z 04008KT 06/M12 A3012 RMK A01 T00641119  RH  026%=      5-min Rain = 0
KMNS 112000Z 02004KT 06/M12 A3012 RMK A01 T00601120  RH  026%=      5-min Rain = 0
KMNS 112005Z 02007KT 06/M12 A3012 RMK A01 T00621117  RH  026%=      5-min Rain = 0
KMNS 112010Z 02006G11KT 07/M12 A3012 RMK A01 T00651123  RH  024%=      5-min Rain = 0
KMNS 112015Z 05004KT 06/M12 A3012 RMK A01 T00631123  RH  025%=      5-min Rain = 0
KMNS 112020Z 01006KT 06/M12 A3011 RMK A01 T00641119  RH  026%=      5-min Rain = 0
KMNS 112025Z 02005KT 06/M12 A3011 RMK A01 T00641119  RH  026%=      5-min Rain = 0
KMNS 112030Z 03003G8KT 06/M12 A3011 RMK A01 T00641119  RH  025%=      5-min Rain = 0
KMNS 112035Z 05005KT 07/M12 A3011 RMK A01 T00651117  RH  026%=      5-min Rain = 0
KMNS 112040Z 03005KT 07/M12 A3011 RMK A01 T00661118  RH  025%=      5-min Rain = 0
KMNS 112045Z 03002KT 07/M12 A3011 RMK A01 T00671118  RH  025%=      5-min Rain = 0
KMNS 112050Z 35002KT 07/M12 A301 RMK A01 T00701118  RH  025%=      5-min Rain = 0
KMNS 112055Z 03005G10KT 07/M12 A301 RMK A01 T00721120  RH  024%=      5-min Rain = 0
KMNS 112100Z 03006KT 07/M12 A301 RMK A01 T00701121  RH  024%=      5-min Rain = 0
KMNS 112105Z 02004KT 07/M12 A301 RMK A01 T00711123  RH  024%=      5-min Rain = 0
KMNS 112110Z 02004KT 07/M12 A301 RMK A01 T00711123  RH  023%=      5-min Rain = 0
KMNS 112115Z 04005KT 07/M12 A301 RMK A01 T00721124  RH  023%=      5-min Rain = 0
KMNS 112120Z 08003KT 07/M13 A301 RMK A01 T00711125  RH  023%=      5-min Rain = 0
KMNS 112125Z 09002KT 07/M13 A301 RMK A01 T00711127  RH  023%=      5-min Rain = 0
KMNS 112130Z 14003KT 08/M13 A301 RMK A01 T00781125  RH  022%=      5-min Rain = 0
KMNS 112135Z 08003KT 08/M13 A3011 RMK A01 T00801126  RH  022%=      5-min Rain = 0
KMNS 112140Z 03005KT 08/M13 A301 RMK A01 T00791127  RH  022%=      5-min Rain = 0
KMNS 112145Z 06004KT 08/M13 A301 RMK A01 T00771126  RH  022%=      5-min Rain = 0
KMNS 112150Z 05004KT 08/M13 A301 RMK A01 T00821126  RH  021%=      5-min Rain = 0
KMNS 112155Z 03006KT 08/M13 A3011 RMK A01 T00791128  RH  021%=      5-min Rain = 0
KMNS 112200Z 01003KT 07/M13 A3011 RMK A01 T00741127  RH  022%=      5-min Rain = 0
KMNS 112205Z 31003KT 07/M13 A3011 RMK A01 T00731127  RH  022%=      5-min Rain = 0
KMNS 112210Z 29003KT 08/M13 A3011 RMK A01 T00771126  RH  022%=      5-min Rain = 0
KMNS 112215Z 36002KT 08/M13 A3011 RMK A01 T00751127  RH  022%=      5-min Rain = 0
KMNS 112220Z 05004KT 08/M13 A3011 RMK A01 T00801127  RH  021%=      5-min Rain = 0
KMNS 112225Z 03004G9KT 08/M13 A3011 RMK A01 T00751130  RH  021%=      5-min Rain = 0
KMNS 112230Z 04004KT 08/M13 A3011 RMK A01 T00781128  RH  021%=      5-min Rain = 0
KMNS 112235Z 06004KT 08/M13 A3011 RMK A01 T00771129  RH  021%=      5-min Rain = 0
KMNS 112240Z 04004KT 08/M13 A3011 RMK A01 T00771129  RH  022%=      5-min Rain = 0
KMNS 112245Z 04003KT 08/M13 A3011 RMK A01 T00791128  RH  021%=      5-min Rain = 0
KMNS 112250Z 04003KT 08/M13 A3012 RMK A01 T00761129  RH  022%=      5-min Rain = 0
KMNS 112255Z 04002KT 08/M13 A3012 RMK A01 T00751128  RH  022%=      5-min Rain = 0
KMNS 112300Z 07001KT 08/M13 A3012 RMK A01 T00761128  RH  022%=      5-min Rain = 0
KMNS 112305Z 36000KT 08/M13 A3012 RMK A01 T00801127  RH  021%=      5-min Rain = 0
KMNS 112310Z 16003KT 09/M13 A3012 RMK A01 T00851128  RH  021%=      5-min Rain = 0
KMNS 112315Z 18002KT 08/M13 A3012 RMK A01 T00811128  RH  021%=      5-min Rain = 0
KMNS 112320Z 22001KT 08/M13 A3012 RMK A01 T00821127  RH  021%=      5-min Rain = 0
KMNS 112325Z 15002KT 09/M13 A3012 RMK A01 T00861127  RH  021%=      5-min Rain = 0
KMNS 112330Z 13004KT 08/M13 A3012 RMK A01 T00761128  RH  022%=      5-min Rain = 0
KMNS 112335Z 13003KT 07/M13 A3012 RMK A01 T00731127  RH  022%=      5-min Rain = 0
KMNS 112340Z 11002KT 07/M13 A3012 RMK A01 T00741126  RH  022%=      5-min Rain = 0
KMNS 112345Z 12002KT 07/M13 A3012 RMK A01 T00721127  RH  023%=      5-min Rain = 0
KMNS 112350Z 13004KT 07/M13 A3012 RMK A01 T00681128  RH  023%=      5-min Rain = 0
KMNS 112355Z 11003KT 06/M13 A3012 RMK A01 T00621128  RH  024%=      5-min Rain = 0
KMNS 120000Z 07005KT 06/M13 A3012 RMK A01 T00591129  RH  024%=      5-min Rain = 0
KMNS 120005Z 09004KT 06/M13 A3012 RMK A01 T00581128  RH  025%=      5-min Rain = 0
KMNS 120010Z 09004KT 05/M13 A3013 RMK A01 T00531129  RH  025%=      5-min Rain = 0
KMNS 120015Z 12004KT 05/M13 A3013 RMK A01 T00501130  RH  026%=      5-min Rain = 0
KMNS 120020Z 12005KT 05/M13 A3013 RMK A01 T00451132  RH  026%=      5-min Rain = 0
KMNS 120025Z 12007KT 04/M13 A3013 RMK A01 T00391132  RH  027%=      5-min Rain = 0
KMNS 120030Z 12007KT 04/M13 A3013 RMK A01 T00381132  RH  027%=      5-min Rain = 0
KMNS 120035Z 12006KT 04/M13 A3013 RMK A01 T00361134  RH  028%=      5-min Rain = 0
KMNS 120040Z 14005KT 04/M13 A3014 RMK A01 T00351134  RH  028%=      5-min Rain = 0
KMNS 120045Z 13006KT 04/M13 A3014 RMK A01 T00351133  RH  028%=      5-min Rain = 0
KMNS 120050Z 13006KT 03/M13 A3014 RMK A01 T00331134  RH  028%=      5-min Rain = 0
KMNS 120055Z 14005KT 03/M14 A3014 RMK A01 T00301136  RH  028%=      5-min Rain = 0
KMNS 120100Z 14006KT 03/M14 A3014 RMK A01 T00281137  RH  028%=      5-min Rain = 0
KMNS 120105Z 14007KT 03/M14 A3014 RMK A01 T00271136  RH  029%=      5-min Rain = 0
KMNS 120110Z 14007KT 03/M13 A3014 RMK A01 T00291134  RH  029%=      5-min Rain = 0
KMNS 120115Z 14007KT 03/M14 A3014 RMK A01 T00251136  RH  029%=      5-min Rain = 0
KMNS 120120Z 15007KT 02/M14 A3014 RMK A01 T00231136  RH  030%=      5-min Rain = 0
KMNS 120125Z 15007KT 02/M14 A3014 RMK A01 T00201137  RH  030%=      5-min Rain = 0
KMNS 120130Z 15006KT 02/M14 A3014 RMK A01 T00171137  RH  030%=      5-min Rain = 0
KMNS 120135Z 16007KT 02/M14 A3015 RMK A01 T00161135  RH  031%=      5-min Rain = 0
KMNS 120140Z 15007KT 02/M14 A3015 RMK A01 T00171136  RH  031%=      5-min Rain = 0
KMNS 120145Z 15007KT 01/M14 A3015 RMK A01 T00141138  RH  031%=      5-min Rain = 0
KMNS 120150Z 15006KT 01/M14 A3015 RMK A01 T00101139  RH  032%=      5-min Rain = 0
KMNS 120155Z 15006KT 01/M14 A3015 RMK A01 T00091139  RH  032%=      5-min Rain = 0
KMNS 120200Z 14004KT 01/M14 A3015 RMK A01 T00081139  RH  032%=      5-min Rain = 0
KMNS 120205Z 15005KT 00/M14 A3015 RMK A01 T00041141  RH  032%=      5-min Rain = 0
KMNS 120210Z 16005KT 00/M14 A3016 RMK A01 T00011141  RH  033%=      5-min Rain = 0
KMNS 120215Z 16005KT 00/14 A3016 RMK A01 T00-00-140  RH  034%=      5-min Rain = 0
KMNS 120220Z 16005KT M00/M14 A3016 RMK A01 T10021141  RH  034%=      5-min Rain = 0
KMNS 120225Z 16005KT M01/M14 A3016 RMK A01 T10081144  RH  035%=      5-min Rain = 0
KMNS 120230Z 16005KT M01/M14 A3016 RMK A01 T10081140  RH  036%=      5-min Rain = 0
KMNS 120235Z 17006KT M00/M14 A3017 RMK A01 T10041138  RH  035%=      5-min Rain = 0
KMNS 120240Z 16006KT M01/M14 A3017 RMK A01 T10071141  RH  035%=      5-min Rain = 0
KMNS 120245Z 17006KT M00/M14 A3017 RMK A01 T10031139  RH  035%=      5-min Rain = 0
KMNS 120250Z 16006KT M01/M14 A3017 RMK A01 T10081141  RH  035%=      5-min Rain = 0
KMNS 120255Z 16008KT M00/M14 A3017 RMK A01 T10021137  RH  035%=      5-min Rain = 0
KMNS 120300Z 16007KT 00/M14 A3017 RMK A01 T00031136  RH  034%=      5-min Rain = 0
KMNS 120305Z 16006KT M00/M14 A3017 RMK A01 T10021139  RH  034%=      5-min Rain = 0
KMNS 120310Z 16006KT M01/M14 A3018 RMK A01 T10071140  RH  036%=      5-min Rain = 0
KMNS 120315Z 16007KT M01/M14 A3018 RMK A01 T10081139  RH  036%=      5-min Rain = 0
KMNS 120320Z 16006KT M01/M14 A3017 RMK A01 T10061137  RH  036%=      5-min Rain = 0
KMNS 120325Z 16006KT M01/M14 A3017 RMK A01 T10071137  RH  036%=      5-min Rain = 0
KMNS 120330Z 16006KT M02/M14 A3017 RMK A01 T10151141  RH  037%=      5-min Rain = 0
KMNS 120335Z 16006KT M01/M14 A3018 RMK A01 T10141137  RH  038%=      5-min Rain = 0
KMNS 120340Z 17007KT M01/M14 A3018 RMK A01 T10121138  RH  037%=      5-min Rain = 0
KMNS 120345Z 16007KT M01/M14 A3018 RMK A01 T10111136  RH  038%=      5-min Rain = 0
KMNS 120350Z 17006KT M01/M14 A3018 RMK A01 T10111137  RH  037%=      5-min Rain = 0
KMNS 120355Z 16006KT M02/M14 A3018 RMK A01 T10171139  RH  038%=      5-min Rain = 0
KMNS 120400Z 16007KT M01/M14 A3018 RMK A01 T10141137  RH  038%=      5-min Rain = 0
KMNS 120405Z 16007KT M02/M14 A3018 RMK A01 T10151140  RH  038%=      5-min Rain = 0
KMNS 120410Z 17006KT M02/M15 A3019 RMK A01 T10221145  RH  038%=      5-min Rain = 0
KMNS 120415Z 17006KT M03/M15 A3019 RMK A01 T10251145  RH  039%=      5-min Rain = 0
KMNS 120420Z 18006KT M03/M15 A3019 RMK A01 T10271145  RH  039%=      5-min Rain = 0
KMNS 120425Z 17006KT M03/M15 A3019 RMK A01 T10331147  RH  040%=      5-min Rain = 0
KMNS 120430Z 17006KT M03/M14 A3019 RMK A01 T10321144  RH  041%=      5-min Rain = 0
KMNS 120435Z 17006KT M03/M14 A3019 RMK A01 T10271140  RH  041%=      5-min Rain = 0
KMNS 120440Z 17007KT M02/M14 A3019 RMK A01 T10231138  RH  041%=      5-min Rain = 0
KMNS 120445Z 17008KT M03/M14 A3019 RMK A01 T10261140  RH  041%=      5-min Rain = 0
KMNS 120450Z 17007KT M02/M14 A3019 RMK A01 T10211137  RH  040%=      5-min Rain = 0
KMNS 120455Z 17007KT M02/M14 A3019 RMK A01 T10201137  RH  040%=      5-min Rain = 0
KMNS 120500Z 17007KT M02/M14 A3019 RMK A01 T10201138  RH  040%=      5-min Rain = 0
KMNS 120505Z 17006KT M03/M14 A3019 RMK A01 T10251140  RH  040%=      5-min Rain = 0
KMNS 120510Z 17006KT M03/M14 A3019 RMK A01 T10271140  RH  041%=      5-min Rain = 0
KMNS 120515Z 17007KT M03/M14 A3019 RMK A01 T10271139  RH  041%=      5-min Rain = 0
KMNS 120520Z 18006KT M03/M14 A3019 RMK A01 T10321143  RH  042%=      5-min Rain = 0
KMNS 120525Z 18007KT M04/M15 A3019 RMK A01 T10391149  RH  042%=      5-min Rain = 0
KMNS 120530Z 19006KT M04/M15 A3019 RMK A01 T10421151  RH  042%=      5-min Rain = 0
KMNS 120535Z 19007KT M05/M15 A3019 RMK A01 T10471154  RH  042%=      5-min Rain = 0
KMNS 120540Z 19007KT M05/M15 A3019 RMK A01 T10481153  RH  043%=      5-min Rain = 0
KMNS 120545Z 20006KT M05/M15 A3019 RMK A01 T10461151  RH  043%=      5-min Rain = 0
KMNS 120550Z 20007KT M04/M15 A3019 RMK A01 T10441148  RH  044%=      5-min Rain = 0
KMNS 120555Z 20006KT M05/M15 A3019 RMK A01 T10451148  RH  044%=      5-min Rain = 0

Page generated in 0.0253 seconds.